createdAt,value
2023-04-27T00:01:11.470Z,1.67
2023-04-27T00:03:38.907Z,2.27
2023-04-27T00:06:06.144Z,2.77
2023-04-27T00:08:32.882Z,2.33
2023-04-27T00:11:00.566Z,2.03
2023-04-27T00:13:27.401Z,2.30
2023-04-27T00:15:54.346Z,2.07
2023-04-27T00:18:21.295Z,2.03
2023-04-27T00:20:48.203Z,2.63
2023-04-27T00:23:14.839Z,2.47
2023-04-27T00:25:41.597Z,2.40
2023-04-27T00:28:08.275Z,2.53
2023-04-27T00:30:36.166Z,2.10
2023-04-27T00:33:02.874Z,1.93
2023-04-27T00:35:29.608Z,2.10
2023-04-27T00:37:56.347Z,2.30
2023-04-27T00:40:23.018Z,3.10
2023-04-27T00:42:49.663Z,2.03
2023-04-27T00:45:16.478Z,2.47
2023-04-27T00:47:44.317Z,2.30
2023-04-27T00:50:11.982Z,2.53
2023-04-27T00:52:39.502Z,3.83
2023-04-27T00:55:07.133Z,3.27
2023-04-27T00:57:34.208Z,3.93
2023-04-27T01:00:02.172Z,3.90
2023-04-27T01:02:30.202Z,4.90
2023-04-27T01:04:57.479Z,3.20
2023-04-27T01:07:27.454Z,2.70
2023-04-27T01:09:54.286Z,5.20
2023-04-27T01:12:21.013Z,2.27
2023-04-27T01:14:47.651Z,2.70
2023-04-27T01:17:14.392Z,2.90
2023-04-27T01:19:41.123Z,3.20
2023-04-27T01:22:08.028Z,2.20
2023-04-27T01:24:34.878Z,3.00
2023-04-27T01:27:02.627Z,2.30
2023-04-27T01:29:29.419Z,2.93
2023-04-27T01:31:56.260Z,3.63
2023-04-27T01:34:23.059Z,2.90
2023-04-27T01:36:49.769Z,2.30
2023-04-27T01:39:16.465Z,3.00
2023-04-27T01:41:43.147Z,2.70
2023-04-27T01:44:09.796Z,2.60
2023-04-27T01:46:36.464Z,2.80
2023-04-27T01:49:03.372Z,3.67
2023-04-27T01:51:30.138Z,4.07
2023-04-27T01:53:56.843Z,2.40
2023-04-27T01:56:23.494Z,3.17
2023-04-27T01:58:50.123Z,2.90
2023-04-27T02:01:16.735Z,2.83
2023-04-27T02:03:43.549Z,2.73
2023-04-27T02:06:10.387Z,3.30
2023-04-27T02:08:37.035Z,3.30
2023-04-27T02:11:03.695Z,2.77
2023-04-27T02:13:30.317Z,3.00
2023-04-27T02:15:57.036Z,3.03
2023-04-27T02:18:24.887Z,2.80
2023-04-27T02:20:51.517Z,2.47
2023-04-27T02:23:18.156Z,2.53
2023-04-27T02:25:46.843Z,2.60
2023-04-27T02:28:14.113Z,3.20
2023-04-27T02:30:41.392Z,2.70
2023-04-27T02:33:08.285Z,2.57
2023-04-27T02:35:35.298Z,2.50
2023-04-27T02:38:01.906Z,2.53
2023-04-27T02:40:28.530Z,2.43
2023-04-27T02:42:55.252Z,2.63
2023-04-27T02:45:21.855Z,2.73
2023-04-27T02:47:49.105Z,2.40
2023-04-27T02:50:15.773Z,3.10
2023-04-27T02:52:42.382Z,2.97
2023-04-27T02:55:09.335Z,2.60
2023-04-27T02:57:36.031Z,2.30
2023-04-27T03:00:05.073Z,2.67
2023-04-27T03:02:32.243Z,2.30
2023-04-27T03:04:59.285Z,2.20
2023-04-27T03:07:25.967Z,2.10
2023-04-27T03:09:52.574Z,2.00
2023-04-27T03:12:19.208Z,2.80
2023-04-27T03:14:45.805Z,3.20
2023-04-27T03:17:12.436Z,2.70
2023-04-27T03:19:39.028Z,2.87
2023-04-27T03:22:05.677Z,1.97
2023-04-27T03:24:33.362Z,2.30
2023-04-27T03:27:00.121Z,2.60
2023-04-27T03:29:26.736Z,2.37
2023-04-27T03:31:53.492Z,2.13
2023-04-27T03:34:21.783Z,2.40
2023-04-27T03:36:48.518Z,2.73
2023-04-27T03:39:15.414Z,2.27
2023-04-27T03:41:42.670Z,2.20
2023-04-27T03:44:09.627Z,2.50
2023-04-27T03:46:36.342Z,3.50
2023-04-27T03:49:03.247Z,2.80
2023-04-27T03:51:32.528Z,3.07
2023-04-27T03:53:59.847Z,3.17
2023-04-27T03:56:26.537Z,2.87
2023-04-27T03:58:53.179Z,2.80
2023-04-27T04:01:19.846Z,2.60
2023-04-27T04:03:48.039Z,3.10
2023-04-27T04:06:14.971Z,3.43
2023-04-27T04:08:41.708Z,2.40
2023-04-27T04:11:08.463Z,3.47
2023-04-27T04:13:36.054Z,3.70
2023-04-27T04:16:07.898Z,2.90
2023-04-27T04:18:35.106Z,3.17
2023-04-27T04:21:02.490Z,3.53
2023-04-27T04:23:29.264Z,3.80
2023-04-27T04:25:59.010Z,3.13
2023-04-27T04:28:25.729Z,3.07
2023-04-27T04:30:52.441Z,4.00
2023-04-27T04:33:19.395Z,3.57
2023-04-27T04:35:47.031Z,3.30
2023-04-27T04:38:13.723Z,3.70
2023-04-27T04:40:43.858Z,3.47
2023-04-27T04:43:12.229Z,3.20
2023-04-27T04:45:38.819Z,3.83
2023-04-27T04:48:05.810Z,3.90
2023-04-27T04:50:32.495Z,3.60
2023-04-27T04:52:59.167Z,4.00
2023-04-27T04:55:28.925Z,4.70
2023-04-27T04:57:55.610Z,3.10
2023-04-27T05:00:22.854Z,4.30
2023-04-27T05:02:49.623Z,3.90
2023-04-27T05:05:16.646Z,4.20
2023-04-27T05:07:43.374Z,3.80
2023-04-27T05:10:10.216Z,3.87
2023-04-27T05:12:36.953Z,4.57
2023-04-27T05:15:04.067Z,3.83
2023-04-27T05:17:31.140Z,3.73
2023-04-27T05:19:58.243Z,3.67
2023-04-27T05:22:24.976Z,4.40
2023-04-27T05:24:51.886Z,3.83
2023-04-27T05:27:18.664Z,3.90
2023-04-27T05:29:45.290Z,4.07
2023-04-27T05:32:11.933Z,3.80
2023-04-27T05:34:38.615Z,3.93
2023-04-27T05:37:05.276Z,3.10
2023-04-27T05:39:31.952Z,3.90
2023-04-27T05:41:58.871Z,4.77
2023-04-27T05:44:28.381Z,3.40
2023-04-27T05:46:56.158Z,3.97
2023-04-27T05:49:23.110Z,3.00
2023-04-27T05:51:49.954Z,3.17
2023-04-27T05:54:16.716Z,3.27
2023-04-27T05:56:43.369Z,4.17
2023-04-27T05:59:10.249Z,3.47
2023-04-27T06:01:36.920Z,4.03
2023-04-27T06:04:04.077Z,3.73
2023-04-27T06:06:35.520Z,3.93
2023-04-27T06:09:02.271Z,4.00
2023-04-27T06:11:28.943Z,4.13
2023-04-27T06:13:55.657Z,3.60
2023-04-27T06:16:22.301Z,3.50
2023-04-27T06:18:50.817Z,3.77
2023-04-27T06:21:17.634Z,4.57
2023-04-27T06:23:44.328Z,3.90
2023-04-27T06:26:11.526Z,3.00
2023-04-27T06:28:38.358Z,2.83
2023-04-27T06:31:05.342Z,3.40
2023-04-27T06:33:32.157Z,3.23
2023-04-27T06:35:58.772Z,3.40
2023-04-27T06:38:25.378Z,2.70
2023-04-27T06:40:53.073Z,3.37
2023-04-27T06:43:19.855Z,3.83
2023-04-27T06:45:46.541Z,3.37
2023-04-27T06:48:13.287Z,3.30
2023-04-27T06:50:40.077Z,2.57
2023-04-27T06:53:06.721Z,3.47
2023-04-27T06:55:33.319Z,3.17
2023-04-27T06:57:59.942Z,2.67
2023-04-27T07:00:27.251Z,3.13
2023-04-27T07:02:54.058Z,3.47
2023-04-27T07:05:21.077Z,2.37
2023-04-27T07:07:47.719Z,2.70
2023-04-27T07:10:14.399Z,2.37
2023-04-27T07:12:42.526Z,3.00
2023-04-27T07:15:09.839Z,2.77
2023-04-27T07:17:36.631Z,2.87
2023-04-27T07:20:05.938Z,3.10
2023-04-27T07:22:33.244Z,2.30
2023-04-27T07:25:00.199Z,2.40
2023-04-27T07:27:27.442Z,2.80
2023-04-27T07:29:54.722Z,2.70
2023-04-27T07:32:22.751Z,1.93
2023-04-27T07:34:54.061Z,2.80
2023-04-27T07:37:22.209Z,1.70
2023-04-27T07:39:50.341Z,2.60
2023-04-27T07:42:17.108Z,3.17
2023-04-27T07:44:43.861Z,2.03
2023-04-27T07:47:10.968Z,1.97
2023-04-27T07:49:38.246Z,2.70
2023-04-27T07:52:05.192Z,2.23
2023-04-27T07:54:31.809Z,2.50
2023-04-27T07:56:58.547Z,2.63
2023-04-27T07:59:28.616Z,2.20
2023-04-27T08:02:04.090Z,2.10
2023-04-27T08:04:37.988Z,2.20
2023-04-27T08:07:05.287Z,1.90
2023-04-27T08:09:32.628Z,2.00
2023-04-27T08:11:59.237Z,3.20
2023-04-27T08:14:26.159Z,2.30
2023-04-27T08:16:52.922Z,2.27
2023-04-27T08:19:19.663Z,1.83
2023-04-27T08:21:46.684Z,2.03
2023-04-27T08:24:13.397Z,1.90
2023-04-27T08:26:41.446Z,2.80
2023-04-27T08:29:19.373Z,2.00
2023-04-27T08:31:50.860Z,4.00
2023-04-27T08:34:18.224Z,2.13
2023-04-27T08:36:44.854Z,3.20
2023-04-27T08:39:11.820Z,1.60
2023-04-27T08:41:45.218Z,1.97
2023-04-27T08:44:11.971Z,1.93
2023-04-27T08:46:39.591Z,1.93
2023-04-27T08:49:07.839Z,1.60
2023-04-27T08:51:35.631Z,1.63
2023-04-27T08:54:02.515Z,1.60
2023-04-27T08:56:30.234Z,2.10
2023-04-27T08:58:58.018Z,2.37
2023-04-27T09:01:26.113Z,1.53
2023-04-27T09:04:01.378Z,1.60
2023-04-27T09:06:33.026Z,1.53
2023-04-27T09:09:00.257Z,1.57
2023-04-27T09:11:32.510Z,1.30
2023-04-27T09:14:00.870Z,1.77
2023-04-27T09:16:29.304Z,1.77
2023-04-27T09:18:57.445Z,2.30
2023-04-27T09:21:29.372Z,2.10
2023-04-27T09:23:56.361Z,1.70
2023-04-27T09:26:27.638Z,1.93
2023-04-27T09:28:58.745Z,1.90
2023-04-27T09:31:35.021Z,2.10
2023-04-27T09:34:02.405Z,1.90
2023-04-27T09:36:30.726Z,2.50
2023-04-27T09:38:58.872Z,2.57
2023-04-27T09:41:25.910Z,2.10
2023-04-27T09:43:57.564Z,1.77
2023-04-27T09:46:25.921Z,1.80
2023-04-27T09:48:52.949Z,1.83
2023-04-27T09:51:19.627Z,2.27
2023-04-27T09:53:51.668Z,1.73
2023-04-27T09:56:52.373Z,1.80
2023-04-27T09:59:54.622Z,1.70
2023-04-27T10:02:24.802Z,1.30
2023-04-27T10:05:13.511Z,1.50
2023-04-27T10:07:41.273Z,1.40
2023-04-27T10:10:17.601Z,1.77
2023-04-27T10:12:44.473Z,1.90
2023-04-27T10:15:16.647Z,1.73
2023-04-27T10:17:51.162Z,1.53
2023-04-27T10:20:28.331Z,1.47
2023-04-27T10:22:54.918Z,1.80
2023-04-27T10:25:28.174Z,2.30
2023-04-27T10:28:02.830Z,1.80
2023-04-27T10:30:34.977Z,1.93
2023-04-27T10:33:09.813Z,2.30
2023-04-27T10:35:38.371Z,1.70
2023-04-27T10:38:16.592Z,2.20
2023-04-27T10:41:05.300Z,2.17
2023-04-27T10:43:35.373Z,1.50
2023-04-27T10:46:13.802Z,1.70
2023-04-27T10:48:41.693Z,1.80
2023-04-27T10:51:08.476Z,1.90
2023-04-27T10:53:36.736Z,2.17
2023-04-27T10:56:06.625Z,2.30
2023-04-27T10:58:45.420Z,1.83
2023-04-27T11:01:24.764Z,2.47
2023-04-27T11:03:59.531Z,2.13
2023-04-27T11:06:26.364Z,1.80
2023-04-27T11:08:53.081Z,2.53
2023-04-27T11:11:20.692Z,2.53
2023-04-27T11:13:50.517Z,2.80
2023-04-27T11:16:19.287Z,2.60
2023-04-27T11:18:45.991Z,2.30
2023-04-27T11:21:18.419Z,2.50
2023-04-27T11:23:45.458Z,3.00
2023-04-27T11:26:17.002Z,2.30
2023-04-27T11:29:02.054Z,2.60
2023-04-27T11:31:41.871Z,2.43
2023-04-27T11:34:08.898Z,2.93
2023-04-27T11:36:36.128Z,2.50
2023-04-27T11:39:04.726Z,2.07
2023-04-27T11:41:36.206Z,2.57
2023-04-27T11:44:09.522Z,2.57
2023-04-27T11:46:37.025Z,3.93
2023-04-27T11:49:08.861Z,2.57
2023-04-27T11:51:36.205Z,2.80
2023-04-27T11:54:07.267Z,2.53
2023-04-27T11:56:43.256Z,2.70
2023-04-27T11:59:27.578Z,2.33
2023-04-27T12:01:54.679Z,2.40
2023-04-27T12:04:21.690Z,2.70
2023-04-27T12:06:48.511Z,1.87
2023-04-27T12:09:17.349Z,2.40
2023-04-27T12:11:44.054Z,2.00
2023-04-27T12:14:10.696Z,2.03
2023-04-27T12:16:37.522Z,3.40
2023-04-27T12:19:04.711Z,2.90
2023-04-27T12:21:32.231Z,2.27
2023-04-27T12:23:59.120Z,2.23
2023-04-27T12:26:25.713Z,2.40
2023-04-27T12:28:52.369Z,2.20
2023-04-27T12:31:24.097Z,3.43
2023-04-27T12:33:52.200Z,3.00
2023-04-27T12:36:18.825Z,2.20
2023-04-27T12:38:45.608Z,2.20
2023-04-27T12:41:12.213Z,2.23
2023-04-27T12:43:41.063Z,2.33
2023-04-27T12:46:07.813Z,2.63
2023-04-27T12:48:34.798Z,2.57
2023-04-27T12:51:01.594Z,3.47
2023-04-27T12:53:28.808Z,2.73
2023-04-27T12:55:55.575Z,3.50
2023-04-27T12:58:22.257Z,2.13
2023-04-27T13:00:48.887Z,2.10
2023-04-27T13:03:15.651Z,2.90
2023-04-27T13:05:42.495Z,2.53
2023-04-27T13:08:09.136Z,3.00
2023-04-27T13:10:36.539Z,2.23
2023-04-27T13:13:03.490Z,2.90
2023-04-27T13:15:30.150Z,2.53
2023-04-27T13:17:58.805Z,3.30
2023-04-27T13:20:25.559Z,3.60
2023-04-27T13:22:52.171Z,3.27
2023-04-27T13:25:20.031Z,3.70
2023-04-27T13:27:46.676Z,2.90
2023-04-27T13:30:13.379Z,3.00
2023-04-27T13:32:40.129Z,4.13
2023-04-27T13:35:07.673Z,4.20
2023-04-27T13:37:34.461Z,4.37
2023-04-27T13:40:01.123Z,3.67
2023-04-27T13:42:29.516Z,3.60
2023-04-27T13:44:57.077Z,3.67
2023-04-27T13:47:23.814Z,3.97
2023-04-27T13:49:50.465Z,3.90
2023-04-27T13:52:17.333Z,4.50
2023-04-27T13:54:43.968Z,4.17
2023-04-27T13:57:10.802Z,3.60
2023-04-27T13:59:37.422Z,3.77
2023-04-27T14:02:04.060Z,3.70
2023-04-27T14:04:30.881Z,3.70
2023-04-27T14:06:57.574Z,2.83
2023-04-27T14:09:26.887Z,2.87
2023-04-27T14:11:56.887Z,3.50
2023-04-27T14:14:24.112Z,4.53
2023-04-27T14:16:51.239Z,3.50
2023-04-27T14:19:20.224Z,3.60
2023-04-27T14:21:47.711Z,3.50
2023-04-27T14:24:14.359Z,2.87
2023-04-27T14:26:43.953Z,2.80
2023-04-27T14:29:11.582Z,2.80
2023-04-27T14:31:39.217Z,2.90
2023-04-27T14:34:06.953Z,2.73
2023-04-27T14:36:34.354Z,3.20
2023-04-27T14:39:01.367Z,2.67
2023-04-27T14:41:28.311Z,2.80
2023-04-27T14:43:55.318Z,3.00
2023-04-27T14:46:22.377Z,3.00
2023-04-27T14:48:49.559Z,2.57
2023-04-27T14:51:16.974Z,3.37
2023-04-27T14:53:44.159Z,3.10
2023-04-27T14:56:11.338Z,3.60
2023-04-27T14:58:38.632Z,2.70
2023-04-27T15:01:06.015Z,3.20
2023-04-27T15:03:33.422Z,2.53
2023-04-27T15:06:01.229Z,3.13
2023-04-27T15:08:28.190Z,2.87
2023-04-27T15:10:59.178Z,3.10
2023-04-27T15:13:28.869Z,3.23
2023-04-27T15:15:56.518Z,3.43
2023-04-27T15:18:23.992Z,4.53
2023-04-27T15:20:58.092Z,3.77
2023-04-27T15:23:25.985Z,3.97
2023-04-27T15:25:55.955Z,3.90
2023-04-27T15:28:22.888Z,3.83
2023-04-27T15:30:49.906Z,4.23
2023-04-27T15:33:17.744Z,4.50
2023-04-27T15:35:44.647Z,4.53
2023-04-27T15:38:13.272Z,4.43
2023-04-27T15:40:40.487Z,4.73
2023-04-27T15:43:07.425Z,5.30
2023-04-27T15:45:34.071Z,4.10
2023-04-27T15:48:00.768Z,4.73
2023-04-27T15:50:27.539Z,4.50
2023-04-27T15:52:54.186Z,4.20
2023-04-27T15:55:22.035Z,4.50
2023-04-27T15:57:48.674Z,4.30
2023-04-27T16:00:16.883Z,4.20
2023-04-27T16:02:43.794Z,3.90
2023-04-27T16:05:10.941Z,4.20
2023-04-27T16:07:39.660Z,4.13
2023-04-27T16:10:07.301Z,4.60
2023-04-27T16:12:34.051Z,5.10
2023-04-27T16:15:00.992Z,4.63
2023-04-27T16:17:29.037Z,4.77
2023-04-27T16:19:55.850Z,4.90
2023-04-27T16:22:22.476Z,4.80
2023-04-27T16:24:49.112Z,4.40
2023-04-27T16:27:17.261Z,4.90
2023-04-27T16:29:43.963Z,4.40
2023-04-27T16:32:11.065Z,4.80
2023-04-27T16:34:38.204Z,4.63
2023-04-27T16:37:06.249Z,5.10
2023-04-27T16:39:32.934Z,4.83
2023-04-27T16:41:59.533Z,4.70
2023-04-27T16:44:26.252Z,4.23
2023-04-27T16:46:52.882Z,5.20
2023-04-27T16:49:19.733Z,5.83
2023-04-27T16:51:46.336Z,4.63
2023-04-27T16:54:16.223Z,6.20
2023-04-27T16:56:42.900Z,5.97
2023-04-27T16:59:12.218Z,5.23
2023-04-27T17:01:39.260Z,4.47
2023-04-27T17:04:06.223Z,4.97
2023-04-27T17:06:33.090Z,4.57
2023-04-27T17:08:59.939Z,7.03
2023-04-27T17:11:26.980Z,6.57
2023-04-27T17:13:53.658Z,5.47
2023-04-27T17:16:21.735Z,6.03
2023-04-27T17:18:48.853Z,5.23
2023-04-27T17:21:17.121Z,5.20
2023-04-27T17:23:46.491Z,5.17
2023-04-27T17:26:15.950Z,4.83
2023-04-27T17:28:42.614Z,5.77
2023-04-27T17:31:09.288Z,6.00
2023-04-27T17:33:36.091Z,5.47
2023-04-27T17:36:02.799Z,6.10
2023-04-27T17:38:29.428Z,5.10
2023-04-27T17:40:56.219Z,5.30
2023-04-27T17:43:22.961Z,5.03
2023-04-27T17:45:49.638Z,4.93
2023-04-27T17:48:17.005Z,4.47
2023-04-27T17:50:43.769Z,5.10
2023-04-27T17:53:10.438Z,4.53
2023-04-27T17:55:37.064Z,4.70
2023-04-27T17:58:04.261Z,4.80
2023-04-27T18:00:31.007Z,4.60
2023-04-27T18:02:58.017Z,4.70
2023-04-27T18:05:24.827Z,4.10
2023-04-27T18:07:51.775Z,5.57
2023-04-27T18:10:18.482Z,4.87
2023-04-27T18:12:45.072Z,4.40
2023-04-27T18:15:11.761Z,4.67
2023-04-27T18:17:38.478Z,4.67
2023-04-27T18:20:09.646Z,4.53
2023-04-27T18:22:37.827Z,4.40
2023-04-27T18:25:05.021Z,4.20
2023-04-27T18:27:32.889Z,4.80
2023-04-27T18:29:59.688Z,4.43
2023-04-27T18:32:26.333Z,5.20
2023-04-27T18:34:53.322Z,4.27
2023-04-27T18:37:19.923Z,4.80
2023-04-27T18:39:46.621Z,4.37
2023-04-27T18:42:13.291Z,4.87
2023-04-27T18:44:40.259Z,4.03
2023-04-27T18:47:07.763Z,4.53
2023-04-27T18:49:34.504Z,5.27
2023-04-27T18:52:01.317Z,5.43
2023-04-27T18:54:27.924Z,4.80
2023-04-27T18:56:54.827Z,5.80
2023-04-27T18:59:21.578Z,5.00
2023-04-27T19:01:48.273Z,5.00
2023-04-27T19:04:16.385Z,5.17
2023-04-27T19:06:43.238Z,5.60
2023-04-27T19:09:10.092Z,5.40
2023-04-27T19:11:36.820Z,5.10
2023-04-27T19:14:03.542Z,4.97
2023-04-27T19:16:30.338Z,5.00
2023-04-27T19:18:57.064Z,5.40
2023-04-27T19:21:23.735Z,5.20
2023-04-27T19:23:50.323Z,4.60
2023-04-27T19:26:16.974Z,5.37
2023-04-27T19:28:43.588Z,5.43
2023-04-27T19:31:10.534Z,5.07
2023-04-27T19:33:37.196Z,5.43
2023-04-27T19:36:04.485Z,5.17
2023-04-27T19:38:31.235Z,4.63
2023-04-27T19:40:58.014Z,4.73
2023-04-27T19:43:24.662Z,6.03
2023-04-27T19:45:51.573Z,5.10
2023-04-27T19:48:18.293Z,4.57
2023-04-27T19:50:44.938Z,5.23
2023-04-27T19:53:11.704Z,5.10
2023-04-27T19:55:40.098Z,4.77
2023-04-27T19:58:06.700Z,4.60
2023-04-27T20:00:33.515Z,5.03
2023-04-27T20:03:00.451Z,5.00
2023-04-27T20:05:27.710Z,5.70
2023-04-27T20:07:54.499Z,5.00
2023-04-27T20:10:21.519Z,5.33
2023-04-27T20:12:56.169Z,6.33
2023-04-27T20:15:24.346Z,7.00
2023-04-27T20:17:51.543Z,5.90
2023-04-27T20:20:18.342Z,5.57
2023-04-27T20:22:45.120Z,6.40
2023-04-27T20:25:14.388Z,5.47
2023-04-27T20:27:41.288Z,5.27
2023-04-27T20:30:08.465Z,5.70
2023-04-27T20:32:36.151Z,6.60
2023-04-27T20:35:04.685Z,5.00
2023-04-27T20:37:32.204Z,5.27
2023-04-27T20:39:59.331Z,4.30
2023-04-27T20:42:26.045Z,5.50
2023-04-27T20:44:54.798Z,4.83
2023-04-27T20:47:21.801Z,4.73
2023-04-27T20:49:48.513Z,4.73
2023-04-27T20:52:15.434Z,5.10
2023-04-27T20:54:42.341Z,5.50
2023-04-27T20:57:13.354Z,4.23
2023-04-27T20:59:41.041Z,4.13
2023-04-27T21:02:07.860Z,4.60
2023-04-27T21:04:34.648Z,5.43
2023-04-27T21:07:01.326Z,5.83
2023-04-27T21:09:27.968Z,7.00
2023-04-27T21:11:54.657Z,5.77
2023-04-27T21:14:21.321Z,5.50
2023-04-27T21:16:47.974Z,6.13
2023-04-27T21:19:16.496Z,5.20
2023-04-27T21:21:43.416Z,6.20
2023-04-27T21:24:10.224Z,6.30
2023-04-27T21:26:36.888Z,5.47
2023-04-27T21:29:05.542Z,6.07
2023-04-27T21:31:33.232Z,6.60
2023-04-27T21:34:00.206Z,6.23
2023-04-27T21:36:26.930Z,6.17
2023-04-27T21:38:53.706Z,6.93
2023-04-27T21:41:20.387Z,6.77
2023-04-27T21:43:46.960Z,6.60
2023-04-27T21:46:13.670Z,6.13
2023-04-27T21:48:40.252Z,6.30
2023-04-27T21:51:06.805Z,6.30
2023-04-27T21:53:35.393Z,6.23
2023-04-27T21:56:02.038Z,5.80
2023-04-27T21:58:28.749Z,6.10
2023-04-27T22:00:55.559Z,6.37
2023-04-27T22:03:22.863Z,6.90
2023-04-27T22:05:50.239Z,6.50
2023-04-27T22:08:17.386Z,6.30
2023-04-27T22:10:44.771Z,6.30
2023-04-27T22:15:41.403Z,6.50
2023-04-27T22:18:08.212Z,6.77
2023-04-27T22:20:35.020Z,6.53
2023-04-27T22:23:01.837Z,7.47
2023-04-27T22:25:28.594Z,6.93
2023-04-27T22:27:55.264Z,6.80
2023-04-27T22:30:21.941Z,7.77
2023-04-27T22:32:48.695Z,9.10
2023-04-27T22:35:25.448Z,7.13
2023-04-27T22:37:55.712Z,8.33
2023-04-27T22:40:22.689Z,8.73
2023-04-27T22:42:49.333Z,7.30
2023-04-27T22:45:16.295Z,8.87
2023-04-27T22:47:45.650Z,7.87
2023-04-27T22:50:13.169Z,8.30
2023-04-27T22:52:42.254Z,7.27
2023-04-27T22:55:10.416Z,8.57
2023-04-27T22:57:37.485Z,8.47
2023-04-27T23:00:05.561Z,8.37
2023-04-27T23:02:32.478Z,8.60
2023-04-27T23:04:59.273Z,8.10
2023-04-27T23:07:25.968Z,7.73
2023-04-27T23:09:52.850Z,8.70
2023-04-27T23:12:20.727Z,7.73
2023-04-27T23:14:47.441Z,8.23
2023-04-27T23:17:15.426Z,7.27
2023-04-27T23:19:42.181Z,8.53
2023-04-27T23:22:08.983Z,8.40
2023-04-27T23:24:35.766Z,7.90
2023-04-27T23:27:02.518Z,7.60
2023-04-27T23:29:30.860Z,7.77
2023-04-27T23:32:04.410Z,8.20
2023-04-27T23:34:32.788Z,8.20
2023-04-27T23:36:59.743Z,8.13
2023-04-27T23:39:27.914Z,7.70
2023-04-27T23:41:54.648Z,7.87
2023-04-27T23:44:21.435Z,8.53
2023-04-27T23:46:48.134Z,8.37
2023-04-27T23:49:14.874Z,9.13
2023-04-27T23:51:41.547Z,8.23
2023-04-27T23:54:08.142Z,9.53
2023-04-27T23:56:34.750Z,8.27
2023-04-27T23:59:01.561Z,8.27
